Time;durP1;ratioP1;P1;durP2;ratioP2;P2;SDS_P1;SDS_P2;PMS_P1;PMS_P2;Temp;Humidity;BMP_temperature;BMP_pressure;BME280_temperature;BME280_humidity;BME280_pressure;Samples;Min_cycle;Max_cycle;Signal;HPM_P1;HPM_P2
2023/12/20 00:01:48;;;;;;;4.90;3.10;;;;;;;-128.00;-1.00;-1.00;100135;1282;1004297;-34
2023/12/20 00:04:13;;;;;;;7.50;4.00;;;;;;;-128.00;-1.00;-1.00;100028;1283;1004410;-35
2023/12/20 00:06:39;;;;;;;5.80;2.90;;;;;;;-128.00;-1.00;-1.00;100018;1282;1004918;-33
2023/12/20 00:09:04;;;;;;;10.20;4.70;;;;;;;-128.00;-1.00;-1.00;100137;1282;1004476;-32
2023/12/20 00:11:30;;;;;;;6.10;4.00;;;;;;;-128.00;-1.00;-1.00;100146;1282;1060224;-35
2023/12/20 00:13:55;;;;;;;10.10;4.40;;;;;;;-128.00;-1.00;-1.00;100050;1282;1004501;-35
2023/12/20 00:16:21;;;;;;;6.90;3.50;;;;;;;-128.00;-1.00;-1.00;100084;1282;1004580;-35
2023/12/20 00:18:46;;;;;;;7.00;4.10;;;;;;;-128.00;-1.00;-1.00;100065;1282;1005456;-34
2023/12/20 00:21:12;;;;;;;8.30;4.00;;;;;;;-128.00;-1.00;-1.00;100127;1283;1004548;-33
2023/12/20 00:23:38;;;;;;;8.00;4.40;;;;;;;-128.00;-1.00;-1.00;100101;1282;1003541;-35
2023/12/20 00:26:03;;;;;;;6.50;3.70;;;;;;;-128.00;-1.00;-1.00;100065;1288;1004347;-32
2023/12/20 00:28:29;;;;;;;8.10;4.50;;;;;;;-128.00;-1.00;-1.00;100190;1283;1004299;-35
2023/12/20 00:30:54;;;;;;;7.20;4.30;;;;;;;-128.00;-1.00;-1.00;100084;1282;1004634;-35
2023/12/20 00:33:20;;;;;;;9.60;4.60;;;;;;;-128.00;-1.00;-1.00;99962;1282;1004958;-33
2023/12/20 00:35:45;;;;;;;9.40;4.40;;;;;;;-128.00;-1.00;-1.00;100065;1282;1005071;-33
2023/12/20 00:38:11;;;;;;;6.00;4.50;;;;;;;-128.00;-1.00;-1.00;100171;1282;1004418;-32
2023/12/20 00:40:37;;;;;;;7.90;3.70;;;;;;;-128.00;-1.00;-1.00;100066;1283;1060969;-34
2023/12/20 00:43:03;;;;;;;9.90;4.70;;;;;;;-128.00;-1.00;-1.00;100005;1282;1003480;-33
2023/12/20 00:45:28;;;;;;;6.70;3.40;;;;;;;-128.00;-1.00;-1.00;100047;1282;1004501;-34
2023/12/20 00:47:54;;;;;;;9.00;4.40;;;;;;;-128.00;-1.00;-1.00;100053;1282;1046342;-33
2023/12/20 00:50:21;;;;;;;7.20;4.20;;;;;;;-128.00;-1.00;-1.00;100128;1282;1004263;-33
2023/12/20 00:52:47;;;;;;;6.70;3.90;;;;;;;-128.00;-1.00;-1.00;100116;1282;1057482;-34
2023/12/20 00:55:13;;;;;;;6.70;4.30;;;;;;;-128.00;-1.00;-1.00;100024;1282;1004638;-35
2023/12/20 00:57:39;;;;;;;8.20;4.60;;;;;;;-128.00;-1.00;-1.00;100142;1283;1004569;-33
2023/12/20 01:00:06;;;;;;;6.20;3.40;;;;;;;-128.00;-1.00;-1.00;100212;1283;1005029;-37
2023/12/20 01:02:31;;;;;;;7.30;4.30;;;;;;;-128.00;-1.00;-1.00;100046;1282;1060917;-34
2023/12/20 01:04:57;;;;;;;7.30;4.60;;;;;;;-128.00;-1.00;-1.00;100163;1282;1003825;-34
2023/12/20 01:07:22;;;;;;;8.30;4.70;;;;;;;-128.00;-1.00;-1.00;99998;1282;1005142;-33
2023/12/20 01:09:48;;;;;;;8.10;4.40;;;;;;;-128.00;-1.00;-1.00;100138;1283;1003606;-34
2023/12/20 01:12:13;;;;;;;9.40;5.40;;;;;;;-128.00;-1.00;-1.00;100039;1282;1004187;-35
2023/12/20 01:14:39;;;;;;;9.20;5.40;;;;;;;-128.00;-1.00;-1.00;100194;1283;1004761;-35
2023/12/20 01:17:05;;;;;;;8.70;4.00;;;;;;;-128.00;-1.00;-1.00;100126;1282;1013961;-33
2023/12/20 01:19:30;;;;;;;9.10;4.30;;;;;;;-128.00;-1.00;-1.00;100090;1282;1004650;-34
2023/12/20 01:21:56;;;;;;;9.00;4.60;;;;;;;-128.00;-1.00;-1.00;100050;1283;1004048;-35
2023/12/20 01:24:21;;;;;;;7.50;4.40;;;;;;;-128.00;-1.00;-1.00;100029;1282;1005016;-35
2023/12/20 01:26:47;;;;;;;6.40;4.40;;;;;;;-128.00;-1.00;-1.00;100093;1282;1004557;-33
2023/12/20 01:29:14;;;;;;;6.90;4.40;;;;;;;-128.00;-1.00;-1.00;100100;1287;1044728;-34
2023/12/20 01:31:40;;;;;;;7.10;3.70;;;;;;;-128.00;-1.00;-1.00;100062;1282;1004515;-33
2023/12/20 01:34:06;;;;;;;6.30;3.40;;;;;;;-128.00;-1.00;-1.00;100067;1282;1005297;-33
2023/12/20 01:36:32;;;;;;;8.20;4.90;;;;;;;-128.00;-1.00;-1.00;100053;1282;1004705;-32
2023/12/20 01:38:57;;;;;;;7.80;4.70;;;;;;;-128.00;-1.00;-1.00;100134;1282;1003913;-32
2023/12/20 01:41:23;;;;;;;7.10;3.80;;;;;;;-128.00;-1.00;-1.00;100081;1282;1046621;-32
2023/12/20 01:43:49;;;;;;;8.70;4.70;;;;;;;-128.00;-1.00;-1.00;100114;1282;1004803;-38
2023/12/20 01:46:14;;;;;;;5.00;3.50;;;;;;;-128.00;-1.00;-1.00;100197;1282;1004816;-33
2023/12/20 01:48:40;;;;;;;5.70;4.30;;;;;;;-128.00;-1.00;-1.00;100173;1282;1059606;-34
2023/12/20 01:51:06;;;;;;;5.90;4.00;;;;;;;-128.00;-1.00;-1.00;100100;1283;1004096;-35
2023/12/20 02:35:00;;;;;;;7.90;4.70;;;;;;;-101.66;19.20;19735.67;100902;1283;1600559;-34
2023/12/20 02:37:25;;;;;;;4.40;3.10;;;;;;;-128.00;-1.00;-1.00;100431;1285;1003923;-33
2023/12/20 02:39:51;;;;;;;6.40;4.10;;;;;;;-128.00;-1.00;-1.00;100527;1283;1003809;-33
2023/12/20 02:42:17;;;;;;;9.00;3.80;;;;;;;-128.00;-1.00;-1.00;100420;1285;1058849;-34
2023/12/20 02:44:42;;;;;;;8.20;4.40;;;;;;;-128.00;-1.00;-1.00;100315;1283;1003975;-34
2023/12/20 02:47:08;;;;;;;6.30;3.90;;;;;;;-128.00;-1.00;-1.00;100594;1283;1003426;-33
2023/12/20 02:49:33;;;;;;;10.90;4.40;;;;;;;-128.00;-1.00;-1.00;100626;1283;1003512;-33
2023/12/20 02:51:59;;;;;;;9.20;5.60;;;;;;;-128.00;-1.00;-1.00;100535;1283;1003564;-33
2023/12/20 02:54:24;;;;;;;8.60;5.70;;;;;;;-128.00;-1.00;-1.00;100551;1281;1002915;-33
2023/12/20 02:56:50;;;;;;;6.00;4.40;;;;;;;-128.00;-1.00;-1.00;100538;1283;1003539;-32
2023/12/20 02:59:15;;;;;;;10.50;6.50;;;;;;;-128.00;-1.00;-1.00;100563;1285;1003258;-34
2023/12/20 03:01:42;;;;;;;8.60;5.80;;;;;;;-128.00;-1.00;-1.00;100501;1285;1004002;-32
2023/12/20 03:04:08;;;;;;;7.30;5.00;;;;;;;-128.00;-1.00;-1.00;100481;1283;1003132;-33
2023/12/20 03:06:34;;;;;;;5.90;5.00;;;;;;;-128.00;-1.00;-1.00;100589;1285;1003272;-32
2023/12/20 03:08:59;;;;;;;5.80;4.90;;;;;;;-128.00;-1.00;-1.00;100323;1283;1004161;-32
2023/12/20 03:11:28;;;;;;;7.30;4.20;;;;;;;-128.00;-1.00;-1.00;100594;1283;1003380;-32
2023/12/20 03:13:53;;;;;;;9.80;6.40;;;;;;;-128.00;-1.00;-1.00;100512;1283;1059028;-34
2023/12/20 03:16:19;;;;;;;10.30;7.10;;;;;;;-128.00;-1.00;-1.00;100528;1282;1004341;-32
2023/12/20 03:18:45;;;;;;;6.10;3.90;;;;;;;-128.00;-1.00;-1.00;100645;1283;1002748;-32
2023/12/20 03:21:10;;;;;;;8.90;6.30;;;;;;;-128.00;-1.00;-1.00;100512;1283;1003898;-33
2023/12/20 03:23:36;;;;;;;6.70;4.10;;;;;;;-128.00;-1.00;-1.00;100665;1282;1003141;-33
2023/12/20 03:26:02;;;;;;;8.80;5.10;;;;;;;-128.00;-1.00;-1.00;100491;1283;1003182;-32
2023/12/20 03:28:28;;;;;;;10.90;6.90;;;;;;;-128.00;-1.00;-1.00;100472;1283;1059091;-32
2023/12/20 03:30:53;;;;;;;8.30;5.40;;;;;;;-128.00;-1.00;-1.00;100567;1284;1005250;-33
2023/12/20 03:33:19;;;;;;;9.00;5.20;;;;;;;-128.00;-1.00;-1.00;100482;1283;1003174;-32
2023/12/20 03:35:44;;;;;;;12.00;6.90;;;;;;;-128.00;-1.00;-1.00;100633;1283;1059939;-33
2023/12/20 03:38:10;;;;;;;8.40;5.60;;;;;;;-128.00;-1.00;-1.00;100428;1283;1004821;-33
2023/12/20 03:40:36;;;;;;;;;;;;;;;-128.00;-1.00;-1.00;100483;1285;1012760;-34
2023/12/20 03:43:02;;;;;;;6.30;5.00;;;;;;;-128.00;-1.00;-1.00;100672;1283;1002265;-33
2023/12/20 03:45:27;;;;;;;7.20;5.70;;;;;;;-128.00;-1.00;-1.00;100606;1282;1059743;-34
2023/12/20 03:47:55;;;;;;;10.40;5.60;;;;;;;-128.00;-1.00;-1.00;100428;1284;1003832;-33
2023/12/20 03:50:21;;;;;;;11.10;7.00;;;;;;;-128.00;-1.00;-1.00;100465;1284;1013281;-34
2023/12/20 03:52:47;;;;;;;9.60;6.40;;;;;;;-128.00;-1.00;-1.00;100505;1284;1004049;-32
2023/12/20 03:55:13;;;;;;;10.20;6.10;;;;;;;-128.00;-1.00;-1.00;100513;1282;1003880;-32
2023/12/20 03:57:39;;;;;;;9.70;6.60;;;;;;;-128.00;-1.00;-1.00;100493;1283;1055125;-34
2023/12/20 04:00:10;;;;;;;8.60;5.50;;;;;;;-128.00;-1.00;-1.00;100508;1283;1002695;-35
2023/12/20 04:02:36;;;;;;;6.90;4.80;;;;;;;-128.00;-1.00;-1.00;100538;1283;1012418;-32
2023/12/20 04:05:02;;;;;;;8.90;6.70;;;;;;;-128.00;-1.00;-1.00;100543;1283;1003154;-35
2023/12/20 04:07:27;;;;;;;10.90;5.90;;;;;;;-128.00;-1.00;-1.00;100494;1283;1003067;-33
2023/12/20 04:09:53;;;;;;;7.90;4.80;;;;;;;-128.00;-1.00;-1.00;100545;1283;1004091;-32
2023/12/20 04:12:18;;;;;;;9.50;6.80;;;;;;;-128.00;-1.00;-1.00;100443;1283;1058487;-31
2023/12/20 04:14:44;;;;;;;6.90;5.50;;;;;;;-128.00;-1.00;-1.00;100590;1283;1003016;-33
2023/12/20 04:17:10;;;;;;;7.90;5.50;;;;;;;-128.00;-1.00;-1.00;100426;1283;1004719;-34
2023/12/20 04:19:35;;;;;;;10.40;6.00;;;;;;;-128.00;-1.00;-1.00;100354;1285;1003516;-36
2023/12/20 04:22:01;;;;;;;7.60;4.50;;;;;;;-128.00;-1.00;-1.00;100469;1284;1003228;-34
2023/12/20 04:24:27;;;;;;;5.30;3.30;;;;;;;-128.00;-1.00;-1.00;100443;1283;1005290;-32
2023/12/20 04:26:52;;;;;;;8.20;5.10;;;;;;;-128.00;-1.00;-1.00;100562;1283;1003025;-34
2023/12/20 04:29:18;;;;;;;8.60;5.80;;;;;;;-128.00;-1.00;-1.00;100693;1283;1003376;-33
2023/12/20 04:31:43;;;;;;;11.30;5.00;;;;;;;-128.00;-1.00;-1.00;100412;1283;1003587;-33
2023/12/20 04:34:09;;;;;;;9.30;5.50;;;;;;;-128.00;-1.00;-1.00;100463;1283;1004379;-35
2023/12/20 04:36:35;;;;;;;5.10;4.20;;;;;;;-128.00;-1.00;-1.00;100535;1285;1038223;-35
2023/12/20 04:39:00;;;;;;;8.10;4.30;;;;;;;-128.00;-1.00;-1.00;100609;1282;1003749;-33
2023/12/20 04:41:27;;;;;;;5.70;4.10;;;;;;;-128.00;-1.00;-1.00;100475;1283;1003229;-36
2023/12/20 04:43:53;;;;;;;9.90;6.40;;;;;;;-128.00;-1.00;-1.00;100440;1285;1059196;-35
2023/12/20 04:46:18;;;;;;;5.30;3.20;;;;;;;-128.00;-1.00;-1.00;100516;1283;1003187;-34
2023/12/20 04:48:44;;;;;;;9.10;4.50;;;;;;;-128.00;-1.00;-1.00;100511;1283;1002735;-35
2023/12/20 04:51:09;;;;;;;7.50;5.00;;;;;;;-128.00;-1.00;-1.00;100462;1282;1003976;-35
2023/12/20 04:53:35;;;;;;;6.40;4.70;;;;;;;-128.00;-1.00;-1.00;100549;1285;1059073;-34
2023/12/20 04:56:00;;;;;;;10.00;5.00;;;;;;;-128.00;-1.00;-1.00;100514;1286;1004039;-34
2023/12/20 04:58:26;;;;;;;7.50;5.70;;;;;;;-128.00;-1.00;-1.00;100499;1284;1003117;-35
2023/12/20 05:00:52;;;;;;;7.70;4.60;;;;;;;-128.00;-1.00;-1.00;100625;1283;1002949;-33
2023/12/20 05:03:17;;;;;;;8.20;5.00;;;;;;;-128.00;-1.00;-1.00;100577;1284;1004024;-33
2023/12/20 05:05:43;;;;;;;5.60;3.90;;;;;;;-128.00;-1.00;-1.00;100450;1283;1003707;-35
2023/12/20 05:08:08;;;;;;;4.70;3.10;;;;;;;-128.00;-1.00;-1.00;100571;1282;1004764;-36
2023/12/20 05:10:35;;;;;;;5.10;4.00;;;;;;;-128.00;-1.00;-1.00;100493;1283;1003435;-36
2023/12/20 05:13:00;;;;;;;5.80;4.30;;;;;;;-128.00;-1.00;-1.00;100587;1282;1056616;-35
2023/12/20 05:15:26;;;;;;;8.80;4.70;;;;;;;-128.00;-1.00;-1.00;100571;1283;1002921;-34
2023/12/20 05:17:51;;;;;;;6.00;4.60;;;;;;;-128.00;-1.00;-1.00;100492;1282;1039384;-36
2023/12/20 05:20:17;;;;;;;5.30;3.50;;;;;;;-128.00;-1.00;-1.00;100517;1283;1002238;-36
2023/12/20 05:22:43;;;;;;;7.20;5.60;;;;;;;-128.00;-1.00;-1.00;100545;1286;1003526;-36
2023/12/20 05:25:09;;;;;;;5.00;3.90;;;;;;;-128.00;-1.00;-1.00;100581;1283;1002931;-35
2023/12/20 05:27:34;;;;;;;7.10;4.90;;;;;;;-128.00;-1.00;-1.00;100510;1284;1003911;-34
2023/12/20 05:30:00;;;;;;;4.90;3.20;;;;;;;-128.00;-1.00;-1.00;100499;1281;1004459;-36
2023/12/20 05:32:26;;;;;;;5.90;4.70;;;;;;;-128.00;-1.00;-1.00;100493;1283;1003009;-36
2023/12/20 05:34:51;;;;;;;6.30;4.20;;;;;;;-128.00;-1.00;-1.00;100514;1283;1002655;-35
2023/12/20 05:37:17;;;;;;;6.80;3.20;;;;;;;-128.00;-1.00;-1.00;100472;1284;1002827;-36
2023/12/20 05:39:42;;;;;;;5.50;3.80;;;;;;;-128.00;-1.00;-1.00;100587;1285;1002281;-36
2023/12/20 05:42:08;;;;;;;7.00;4.30;;;;;;;-128.00;-1.00;-1.00;100532;1283;1002205;-36
2023/12/20 05:44:33;;;;;;;9.60;4.30;;;;;;;-128.00;-1.00;-1.00;100508;1282;1002431;-35
2023/12/20 05:46:59;;;;;;;5.20;3.50;;;;;;;-128.00;-1.00;-1.00;100448;1283;1003152;-35
2023/12/20 05:49:24;;;;;;;2.70;2.00;;;;;;;-128.00;-1.00;-1.00;100402;1286;1003235;-32
2023/12/20 05:51:51;;;;;;;3.10;1.80;;;;;;;-128.00;-1.00;-1.00;100497;1281;1004018;-33
2023/12/20 05:54:16;;;;;;;2.00;1.30;;;;;;;-128.00;-1.00;-1.00;100506;1283;1056271;-33
2023/12/20 05:56:42;;;;;;;6.80;2.40;;;;;;;-128.00;-1.00;-1.00;100432;1295;1005128;-36
2023/12/20 05:59:08;;;;;;;3.30;1.80;;;;;;;-128.00;-1.00;-1.00;100581;1282;1003362;-34
2023/12/20 06:01:33;;;;;;;2.30;1.50;;;;;;;-128.00;-1.00;-1.00;100514;1283;1046055;-34
2023/12/20 06:03:59;;;;;;;4.10;2.80;;;;;;;-128.00;-1.00;-1.00;100545;1283;1004577;-34
2023/12/20 06:06:24;;;;;;;4.00;2.30;;;;;;;-128.00;-1.00;-1.00;100540;1283;1003639;-33
2023/12/20 06:08:50;;;;;;;4.10;2.00;;;;;;;-128.00;-1.00;-1.00;100463;1283;1003590;-34
2023/12/20 06:11:16;;;;;;;3.40;1.70;;;;;;;-128.00;-1.00;-1.00;100503;1286;1004433;-35
2023/12/20 06:13:41;;;;;;;5.10;2.70;;;;;;;-128.00;-1.00;-1.00;100422;1280;1003581;-35
2023/12/20 06:16:07;;;;;;;3.80;2.50;;;;;;;-128.00;-1.00;-1.00;100476;1286;1004380;-34
2023/12/20 06:18:33;;;;;;;5.40;2.60;;;;;;;-128.00;-1.00;-1.00;100379;1284;1013151;-34
2023/12/20 06:20:58;;;;;;;3.00;1.80;;;;;;;-128.00;-1.00;-1.00;100451;1283;1003229;-35
2023/12/20 06:23:24;;;;;;;3.10;1.30;;;;;;;-128.00;-1.00;-1.00;100646;1283;1004255;-35
2023/12/20 06:25:49;;;;;;;1.40;1.00;;;;;;;-128.00;-1.00;-1.00;100473;1283;1055019;-35
2023/12/20 06:28:15;;;;;;;2.60;1.70;;;;;;;-128.00;-1.00;-1.00;100502;1286;1003102;-36
2023/12/20 06:30:40;;;;;;;2.70;1.20;;;;;;;-128.00;-1.00;-1.00;100405;1283;1003296;-31
2023/12/20 06:33:06;;;;;;;3.00;1.30;;;;;;;-128.00;-1.00;-1.00;100570;1283;1002962;-34
2023/12/20 06:35:32;;;;;;;4.20;1.40;;;;;;;-128.00;-1.00;-1.00;100367;1286;1056547;-33
2023/12/20 06:37:58;;;;;;;14.10;4.50;;;;;;;-128.00;-1.00;-1.00;100454;1283;1005189;-33
2023/12/20 06:40:24;;;;;;;;;;;;;;;-128.00;-1.00;-1.00;100457;1283;1004446;-34
2023/12/20 06:42:49;;;;;;;3.50;1.40;;;;;;;-128.00;-1.00;-1.00;100569;1286;1045181;-33
2023/12/20 06:45:15;;;;;;;5.90;2.20;;;;;;;-128.00;-1.00;-1.00;100449;1282;1004423;-40
2023/12/20 06:47:41;;;;;;;2.40;1.50;;;;;;;-128.00;-1.00;-1.00;100498;1283;1003739;-34
2023/12/20 06:50:08;;;;;;;3.80;2.40;;;;;;;-128.00;-1.00;-1.00;100446;1283;1013431;-33
2023/12/20 06:52:35;;;;;;;1.70;0.90;;;;;;;-128.00;-1.00;-1.00;100537;1286;1003564;-35
2023/12/20 06:55:01;;;;;;;6.40;2.60;;;;;;;-128.00;-1.00;-1.00;100524;1285;1003479;-33
2023/12/20 06:57:26;;;;;;;2.30;1.20;;;;;;;-128.00;-1.00;-1.00;100486;1283;1003893;-36
2023/12/20 06:59:52;;;;;;;4.50;2.50;;;;;;;-128.00;-1.00;-1.00;100522;1281;1003162;-35
2023/12/20 07:02:18;;;;;;;3.30;1.20;;;;;;;-128.00;-1.00;-1.00;100427;1282;1012440;-35
2023/12/20 07:04:44;;;;;;;3.10;1.50;;;;;;;-128.00;-1.00;-1.00;100494;1282;1003932;-36
2023/12/20 07:07:09;;;;;;;1.70;0.90;;;;;;;-128.00;-1.00;-1.00;100538;1285;1003357;-35
2023/12/20 07:09:35;;;;;;;1.10;0.60;;;;;;;-128.00;-1.00;-1.00;100268;1285;1056220;-34
2023/12/20 07:12:01;;;;;;;1.60;0.80;;;;;;;-128.00;-1.00;-1.00;100413;1283;1002532;-34
2023/12/20 07:14:27;;;;;;;;;;;;;;;-128.00;-1.00;-1.00;100606;1286;1003730;-34
2023/12/20 07:16:53;;;;;;;1.30;0.70;;;;;;;-128.00;-1.00;-1.00;100683;1283;1046751;-33
2023/12/20 07:19:18;;;;;;;0.90;0.50;;;;;;;-128.00;-1.00;-1.00;100584;1283;1003672;-37
2023/12/20 07:21:44;;;;;;;1.70;0.50;;;;;;;-128.00;-1.00;-1.00;100406;1283;1004907;-35
2023/12/20 07:24:10;;;;;;;2.30;0.90;;;;;;;-128.00;-1.00;-1.00;100395;1283;1013136;-35
2023/12/20 07:26:35;;;;;;;0.70;0.50;;;;;;;-128.00;-1.00;-1.00;100424;1285;1002788;-33
2023/12/20 07:29:01;;;;;;;2.60;0.60;;;;;;;-128.00;-1.00;-1.00;100549;1283;1003794;-35
2023/12/20 07:31:26;;;;;;;1.40;0.80;;;;;;;-128.00;-1.00;-1.00;100428;1282;1002763;-35
2023/12/20 07:33:52;;;;;;;1.20;0.60;;;;;;;-128.00;-1.00;-1.00;100411;1286;1004638;-35
2023/12/20 07:36:19;;;;;;;1.40;0.80;;;;;;;-128.00;-1.00;-1.00;100486;1283;1003955;-36
2023/12/20 07:38:44;;;;;;;1.60;0.70;;;;;;;-128.00;-1.00;-1.00;100463;1281;1003831;-33
2023/12/20 07:41:10;;;;;;;4.90;1.80;;;;;;;-128.00;-1.00;-1.00;100496;1283;1003489;-39
2023/12/20 07:43:36;;;;;;;;;;;;;;;-128.00;-1.00;-1.00;100454;1282;1058850;-33
2023/12/20 07:46:05;;;;;;;4.10;1.90;;;;;;;-128.00;-1.00;-1.00;100411;1285;1003607;-33
2023/12/20 07:48:31;;;;;;;3.20;2.30;;;;;;;-128.00;-1.00;-1.00;100461;1285;1039534;-35
2023/12/20 07:50:57;;;;;;;2.20;1.30;;;;;;;-128.00;-1.00;-1.00;100663;1285;1002878;-34
2023/12/20 07:53:23;;;;;;;;;;;;;;;-128.00;-1.00;-1.00;100474;1281;1003173;-36
2023/12/20 07:55:48;;;;;;;3.00;1.50;;;;;;;-128.00;-1.00;-1.00;100347;1282;1003628;-33
2023/12/20 07:58:14;;;;;;;2.80;1.60;;;;;;;-128.00;-1.00;-1.00;100422;1283;1003394;-36
2023/12/20 08:00:39;;;;;;;3.20;1.70;;;;;;;-128.00;-1.00;-1.00;100453;1283;1004120;-33
2023/12/20 08:03:05;;;;;;;2.60;1.50;;;;;;;-128.00;-1.00;-1.00;100463;1285;1002820;-36
2023/12/20 08:05:31;;;;;;;3.40;1.10;;;;;;;-128.00;-1.00;-1.00;100470;1283;1003925;-41
2023/12/20 08:08:22;;;;;;;3.40;2.00;;;;;;;-128.00;-1.00;-1.00;100476;1283;1012788;-35
2023/12/20 08:10:42;;;;;;;2.70;2.00;;;;;;;-128.00;-1.00;-1.00;100397;1283;1039415;-37
2023/12/20 08:13:08;;;;;;;5.40;2.40;;;;;;;-128.00;-1.00;-1.00;100556;1282;1003810;-33
2023/12/20 08:15:33;;;;;;;4.60;2.70;;;;;;;-128.00;-1.00;-1.00;100597;1283;1056227;-35
2023/12/20 08:17:59;;;;;;;4.00;2.90;;;;;;;-128.00;-1.00;-1.00;100454;1283;1004020;-35
2023/12/20 08:20:29;;;;;;;2.70;1.90;;;;;;;-128.00;-1.00;-1.00;100391;1285;1003287;-35
2023/12/20 08:22:54;;;;;;;2.60;1.70;;;;;;;-128.00;-1.00;-1.00;100543;1283;1046723;-33
2023/12/20 08:25:20;;;;;;;4.70;2.50;;;;;;;-128.00;-1.00;-1.00;100280;1283;1002992;-34
2023/12/20 08:27:45;;;;;;;2.60;1.90;;;;;;;-128.00;-1.00;-1.00;100371;1284;1058077;-34
2023/12/20 08:30:12;;;;;;;2.30;1.40;;;;;;;-128.00;-1.00;-1.00;100522;1282;1004858;-37
2023/12/20 08:32:38;;;;;;;2.70;1.60;;;;;;;-128.00;-1.00;-1.00;100409;1285;1046405;-36
2023/12/20 08:35:04;;;;;;;2.30;1.60;;;;;;;-128.00;-1.00;-1.00;100481;1281;1004886;-36
2023/12/20 08:37:30;;;;;;;2.50;1.60;;;;;;;-128.00;-1.00;-1.00;100298;1282;1003052;-35
2023/12/20 08:39:55;;;;;;;4.30;2.90;;;;;;;-128.00;-1.00;-1.00;100497;1283;1003194;-33
2023/12/20 08:42:21;;;;;;;3.50;1.80;;;;;;;-128.00;-1.00;-1.00;100457;1284;1039413;-33
2023/12/20 08:44:47;;;;;;;3.40;2.40;;;;;;;-128.00;-1.00;-1.00;100537;1283;1003733;-34
2023/12/20 08:47:15;;;;;;;4.50;3.00;;;;;;;-128.00;-1.00;-1.00;100427;1282;1003536;-33
2023/12/20 08:49:41;;;;;;;4.30;2.30;;;;;;;-128.00;-1.00;-1.00;100457;1283;1002814;-33
2023/12/20 08:52:07;;;;;;;3.00;1.90;;;;;;;-128.00;-1.00;-1.00;100411;1283;1003247;-33
2023/12/20 08:54:32;;;;;;;3.40;2.20;;;;;;;-128.00;-1.00;-1.00;100449;1283;1004185;-34
2023/12/20 08:56:58;;;;;;;5.50;2.30;;;;;;;-128.00;-1.00;-1.00;100414;1283;1002832;-33
2023/12/20 08:59:24;;;;;;;3.20;2.10;;;;;;;-128.00;-1.00;-1.00;100496;1282;1003442;-33
2023/12/20 09:01:54;;;;;;;4.30;2.50;;;;;;;-128.00;-1.00;-1.00;100371;1282;1002754;-33
2023/12/20 09:04:20;;;;;;;7.80;2.00;;;;;;;-128.00;-1.00;-1.00;100635;1283;1012263;-33
2023/12/20 09:06:45;;;;;;;7.30;3.00;;;;;;;-128.00;-1.00;-1.00;100583;1282;1005147;-32
2023/12/20 09:09:13;;;;;;;5.40;1.70;;;;;;;-128.00;-1.00;-1.00;100435;1283;1003378;-32
2023/12/20 09:11:39;;;;;;;3.00;1.60;;;;;;;-128.00;-1.00;-1.00;100469;1282;1055173;-33
2023/12/20 09:14:08;;;;;;;3.30;1.60;;;;;;;-128.00;-1.00;-1.00;100580;1282;1058873;-33
2023/12/20 09:16:33;;;;;;;4.30;2.10;;;;;;;-128.00;-1.00;-1.00;100480;1283;1003254;-35
2023/12/20 09:18:59;;;;;;;2.90;1.60;;;;;;;-128.00;-1.00;-1.00;100409;1285;1003159;-33
2023/12/20 09:21:25;;;;;;;3.70;1.40;;;;;;;-128.00;-1.00;-1.00;100516;1283;1003835;-33
2023/12/20 09:23:50;;;;;;;2.40;1.60;;;;;;;-128.00;-1.00;-1.00;100469;1283;1003321;-33
2023/12/20 09:26:16;;;;;;;3.20;1.40;;;;;;;-128.00;-1.00;-1.00;100456;1283;1004119;-31
2023/12/20 09:28:42;;;;;;;2.20;1.10;;;;;;;-128.00;-1.00;-1.00;100440;1282;1003046;-37
2023/12/20 09:31:07;;;;;;;2.80;1.20;;;;;;;-128.00;-1.00;-1.00;100575;1283;1004956;-33
2023/12/20 09:33:33;;;;;;;1.70;0.90;;;;;;;-128.00;-1.00;-1.00;100408;1283;1003298;-36
2023/12/20 09:35:59;;;;;;;;;;;;;;;-128.00;-1.00;-1.00;100385;1283;1059227;-33
2023/12/20 09:38:25;;;;;;;3.70;1.10;;;;;;;-128.00;-1.00;-1.00;100544;1282;1004200;-34
2023/12/20 09:40:50;;;;;;;2.10;1.20;;;;;;;-128.00;-1.00;-1.00;100494;1283;1046767;-32
2023/12/20 09:43:17;;;;;;;3.60;2.50;;;;;;;-128.00;-1.00;-1.00;100468;1282;1003277;-37
2023/12/20 09:45:45;;;;;;;1.80;0.90;;;;;;;-128.00;-1.00;-1.00;100402;1283;1004631;-33
2023/12/20 09:48:11;;;;;;;2.70;1.30;;;;;;;-128.00;-1.00;-1.00;100348;1282;1002971;-35
2023/12/20 09:50:37;;;;;;;1.20;0.70;;;;;;;-128.00;-1.00;-1.00;100467;1282;1003811;-36
2023/12/20 09:53:04;;;;;;;2.00;1.20;;;;;;;-128.00;-1.00;-1.00;100470;1282;1004632;-34
2023/12/20 09:55:30;;;;;;;2.10;0.80;;;;;;;-128.00;-1.00;-1.00;100514;1283;1003942;-36
2023/12/20 09:57:56;;;;;;;2.80;0.80;;;;;;;-128.00;-1.00;-1.00;100467;1282;1004509;-35
2023/12/20 10:00:21;;;;;;;2.10;0.90;;;;;;;-128.00;-1.00;-1.00;100399;1283;1003236;-35
2023/12/20 10:02:57;;;;;;;2.00;0.90;;;;;;;-128.00;-1.00;-1.00;100424;1283;1003278;-36
2023/12/20 10:05:27;;;;;;;1.60;0.80;;;;;;;-128.00;-1.00;-1.00;100523;1283;1038833;-34
2023/12/20 10:07:52;;;;;;;1.60;0.80;;;;;;;-128.00;-1.00;-1.00;100414;1283;1045679;-36
2023/12/20 10:10:18;;;;;;;2.10;0.90;;;;;;;-128.00;-1.00;-1.00;100454;1285;1004184;-34
2023/12/20 10:13:08;;;;;;;1.50;0.90;;;;;;;-128.00;-1.00;-1.00;100428;1283;1002581;-37
2023/12/20 10:15:34;;;;;;;1.90;0.90;;;;;;;-128.00;-1.00;-1.00;100455;1283;1012832;-37
2023/12/20 10:18:01;;;;;;;2.60;1.00;;;;;;;-128.00;-1.00;-1.00;100444;1283;1003822;-33
2023/12/20 10:20:28;;;;;;;2.10;1.00;;;;;;;-128.00;-1.00;-1.00;100533;1283;1002420;-36
2023/12/20 10:22:55;;;;;;;2.00;1.00;;;;;;;-128.00;-1.00;-1.00;100441;1285;1002870;-34
2023/12/20 10:25:21;;;;;;;1.80;0.70;;;;;;;-128.00;-1.00;-1.00;100380;1283;1003018;-34
2023/12/20 10:27:47;;;;;;;2.20;0.60;;;;;;;-128.00;-1.00;-1.00;100385;1283;1002594;-34
2023/12/20 10:30:14;;;;;;;1.40;0.70;;;;;;;-128.00;-1.00;-1.00;100369;1282;1003308;-35
2023/12/20 10:32:43;;;;;;;1.30;0.60;;;;;;;-128.00;-1.00;-1.00;100452;1283;1003809;-33
2023/12/20 10:35:09;;;;;;;1.10;0.60;;;;;;;-128.00;-1.00;-1.00;100409;1283;1045632;-34
2023/12/20 10:37:37;;;;;;;2.20;0.60;;;;;;;-128.00;-1.00;-1.00;100294;1282;1002851;-34
2023/12/20 10:40:04;;;;;;;3.40;0.80;;;;;;;-128.00;-1.00;-1.00;100453;1282;1003522;-32
2023/12/20 10:42:29;;;;;;;1.70;0.90;;;;;;;-128.00;-1.00;-1.00;100379;1285;1002883;-32
2023/12/20 10:44:55;;;;;;;;;;;;;;;-128.00;-1.00;-1.00;100397;1281;1003144;-34
2023/12/20 10:47:21;;;;;;;3.70;1.00;;;;;;;-128.00;-1.00;-1.00;100535;1285;1004363;-33
2023/12/20 10:49:48;;;;;;;1.50;0.90;;;;;;;-128.00;-1.00;-1.00;100649;1283;1060819;-33
2023/12/20 10:52:14;;;;;;;2.30;0.90;;;;;;;-128.00;-1.00;-1.00;100555;1283;1004717;-36
2023/12/20 10:54:41;;;;;;;1.50;0.50;;;;;;;-128.00;-1.00;-1.00;100494;1283;1003362;-32
2023/12/20 10:57:06;;;;;;;1.70;1.00;;;;;;;-128.00;-1.00;-1.00;100440;1282;1038175;-32
2023/12/20 10:59:38;;;;;;;3.40;1.00;;;;;;;-128.00;-1.00;-1.00;100515;1283;1004227;-33
2023/12/20 11:02:07;;;;;;;1.50;0.70;;;;;;;-128.00;-1.00;-1.00;100571;1283;1060630;-31
2023/12/20 11:04:40;;;;;;;2.80;1.10;;;;;;;-128.00;-1.00;-1.00;100585;1282;1056100;-33
2023/12/20 11:07:16;;;;;;;5.60;1.40;;;;;;;-128.00;-1.00;-1.00;100399;1283;1058481;-31
2023/12/20 11:09:47;;;;;;;1.80;1.10;;;;;;;-128.00;-1.00;-1.00;100414;1283;1013494;-31
2023/12/20 11:12:16;;;;;;;1.70;1.00;;;;;;;-128.00;-1.00;-1.00;100418;1284;1038214;-32
2023/12/20 11:14:43;;;;;;;3.00;0.70;;;;;;;-128.00;-1.00;-1.00;100414;1282;1046129;-31
2023/12/20 11:17:10;;;;;;;1.30;0.80;;;;;;;-128.00;-1.00;-1.00;100404;1281;1002462;-35
2023/12/20 11:19:37;;;;;;;3.10;1.10;;;;;;;-128.00;-1.00;-1.00;100429;1285;1003167;-31
2023/12/20 11:22:05;;;;;;;2.90;1.00;;;;;;;-128.00;-1.00;-1.00;100431;1282;1002897;-31
2023/12/20 11:24:32;;;;;;;1.80;1.00;;;;;;;-128.00;-1.00;-1.00;100352;1283;1003386;-32
2023/12/20 11:26:58;;;;;;;4.70;0.90;;;;;;;-128.00;-1.00;-1.00;100443;1285;1002742;-33
2023/12/20 11:29:36;;;;;;;3.00;1.40;;;;;;;-128.00;-1.00;-1.00;100531;1285;1003271;-34
2023/12/20 11:32:02;;;;;;;2.90;1.00;;;;;;;-128.00;-1.00;-1.00;100312;1283;1059518;-31
2023/12/20 11:34:28;;;;;;;1.50;1.00;;;;;;;-128.00;-1.00;-1.00;100443;1282;1005136;-32
2023/12/20 11:36:59;;;;;;;;;;;;;;;-128.00;-1.00;-1.00;100496;1284;1002945;-30
2023/12/20 11:39:26;;;;;;;3.80;1.10;;;;;;;-128.00;-1.00;-1.00;100246;1282;1013822;-31
2023/12/20 11:41:52;;;;;;;2.50;1.20;;;;;;;-128.00;-1.00;-1.00;100518;1283;1002748;-34
2023/12/20 11:44:17;;;;;;;1.60;0.70;;;;;;;-128.00;-1.00;-1.00;100434;1283;1003794;-32
2023/12/20 11:46:44;;;;;;;1.60;0.80;;;;;;;-128.00;-1.00;-1.00;100445;1283;1003005;-30
2023/12/20 11:49:09;;;;;;;1.20;0.60;;;;;;;-128.00;-1.00;-1.00;100487;1282;1003486;-32
2023/12/20 11:51:35;;;;;;;2.50;0.70;;;;;;;-128.00;-1.00;-1.00;100398;1283;1003594;-32
2023/12/20 11:54:00;;;;;;;1.60;0.80;;;;;;;-128.00;-1.00;-1.00;100448;1283;1003617;-32
2023/12/20 11:56:26;;;;;;;5.70;0.90;;;;;;;-128.00;-1.00;-1.00;100425;1283;1003504;-31